Tamon — JD2900 — position and weather

sailwx.info

Track history (hours):
 
Tides and Currents Weather Stations Pressure Air Temp Water Temp Dewpoint Dewpoint Depression Visibility Wind Speed Wind Dir Waves Ship Positions

Tamon

Last reported at 2018-Feb-19 05:55 UTC. Time now 2018-Feb-19 06:01 UTC.
Position N 34°46' E 134°36'.

Length 77 m; draft 4.5 m.

Type: Cargo ship. MMSI: 431000898.

Date/timePositionNaut miles runAvg speedWind from/ knotsBaromVisibWave heightAir tempDewpointWater temp
2018-Feb-19 05:55N 34°46' E 134°36'0 0.0
2018-Feb-19 05:26N 34°46' E 134°36'1 1.2
2018-Feb-19 05:00N 34°46' E 134°37'611.8
2018-Feb-19 04:29N 34°43' E 134°43'612.2
2018-Feb-19 04:00N 34°40' E 134°49'612.3
2018-Feb-19 03:30N 34°37' E 134°56'613.0
2018-Feb-19 03:00N 34°36' E 135°03'612.5
2018-Feb-19 02:31N 34°37' E 135°11'4 7.3
2018-Feb-19 02:00N 34°39' E 135°15'0 0.4
2018-Feb-19 01:30N 34°39' E 135°15'0 0.1
2018-Feb-19 01:00N 34°39' E 135°15'0 0.0
2018-Feb-19 00:31N 34°39' E 135°15'2 4.6
2018-Feb-19 00:00N 34°41' E 135°17'0 0.0
2018-Feb-18 23:31N 34°41' E 135°17'2 3.6
2018-Feb-18 22:59N 34°41' E 135°14'1 2.3
2018-Feb-18 22:30N 34°40' E 135°13'0 0.0
2018-Feb-18 22:00N 34°40' E 135°13'0 0.0
2018-Feb-18 21:30N 34°40' E 135°13'0 0.0
2018-Feb-18 21:00N 34°40' E 135°13'0 0.0
2018-Feb-18 20:30N 34°40' E 135°13'0 0.0
2018-Feb-18 20:00N 34°40' E 135°13'0 0.0
2018-Feb-18 19:30N 34°40' E 135°13'0 0.0
2018-Feb-18 19:00N 34°40' E 135°13'0 0.0
2018-Feb-18 18:30N 34°40' E 135°13'0 0.0
2018-Feb-18 18:00N 34°40' E 135°13'0 0.0
2018-Feb-18 17:30N 34°40' E 135°13'0 0.0
2018-Feb-18 17:00N 34°40' E 135°13'0 0.0
2018-Feb-18 16:31N 34°40' E 135°13'0 0.0
2018-Feb-18 16:00N 34°40' E 135°13'0 0.0
2018-Feb-18 15:30N 34°40' E 135°13'0 0.0
2018-Feb-18 15:01N 34°40' E 135°13'0 0.0
2018-Feb-18 14:30N 34°40' E 135°13'0 0.0
2018-Feb-18 14:01N 34°40' E 135°13'0 0.0
2018-Feb-18 13:30N 34°40' E 135°13'0 0.0
2018-Feb-18 13:00N 34°40' E 135°13'0 0.0
2018-Feb-18 12:30N 34°40' E 135°13'0 0.0
2018-Feb-18 12:00N 34°40' E 135°13'0 0.0
2018-Feb-18 11:30N 34°40' E 135°13'0 0.0
2018-Feb-18 11:01N 34°40' E 135°13'0 0.0
2018-Feb-18 10:31N 34°40' E 135°13'0 0.0
2018-Feb-18 10:00N 34°40' E 135°13'0 0.0
2018-Feb-18 09:30N 34°40' E 135°13'0 0.0
2018-Feb-18 09:01N 34°40' E 135°13'0 0.0
2018-Feb-18 08:30N 34°40' E 135°13'0 0.0
2018-Feb-18 08:00N 34°40' E 135°13'0 0.0
2018-Feb-18 07:31N 34°40' E 135°13'0 0.0
2018-Feb-18 07:00N 34°40' E 135°13'0 0.0
2018-Feb-18 06:30N 34°40' E 135°13'0 0.0
2018-Feb-18 06:01N 34°40' E 135°13'0 0.0
2018-Feb-18 05:30N 34°40' E 135°13'0 0.0
2018-Feb-18 05:00N 34°40' E 135°13'0 0.0
2018-Feb-18 04:31N 34°40' E 135°13'0 0.0
2018-Feb-18 04:00N 34°40' E 135°13'0 0.0
2018-Feb-18 03:30N 34°40' E 135°13'0 0.0
2018-Feb-18 03:00N 34°40' E 135°13'0 0.0
2018-Feb-18 02:29N 34°40' E 135°13'0 0.0
2018-Feb-18 02:00N 34°40' E 135°13'0 0.0
2018-Feb-18 01:31N 34°40' E 135°13'0 0.0
2018-Feb-18 01:00N 34°40' E 135°13'0 0.0
2018-Feb-18 00:30N 34°40' E 135°13'0 0.0
2018-Feb-18 00:01N 34°40' E 135°13'0 0.0
2018-Feb-17 23:30N 34°40' E 135°13'0 0.0
2018-Feb-17 23:01N 34°40' E 135°13'2 4.5
2018-Feb-17 22:31N 34°39' E 135°15'1 1.8
2018-Feb-17 22:01N 34°39' E 135°15'0 0.1
2018-Feb-17 21:30N 34°39' E 135°15'0 0.1
2018-Feb-17 21:00N 34°39' E 135°15'0 0.1
2018-Feb-17 20:30N 34°39' E 135°15'0 0.0
2018-Feb-17 20:00N 34°39' E 135°15'0 0.0
2018-Feb-17 19:31N 34°39' E 135°15'0 0.1
2018-Feb-17 19:00N 34°38' E 135°15'0 0.1
2018-Feb-17 18:30N 34°38' E 135°15'0 0.1
2018-Feb-17 18:00N 34°38' E 135°15'0 0.0
2018-Feb-17 17:30N 34°38' E 135°15'0 0.0
2018-Feb-17 17:00N 34°38' E 135°15'0 0.0
2018-Feb-17 16:31N 34°38' E 135°15'0 0.1
2018-Feb-17 16:00N 34°38' E 135°15'0 0.1
2018-Feb-17 15:31N 34°38' E 135°15'0 0.0
2018-Feb-17 15:00N 34°38' E 135°15'0 0.0
2018-Feb-17 14:30N 34°38' E 135°15'0 0.0
2018-Feb-17 14:01N 34°38' E 135°15'0 0.0
2018-Feb-17 13:30N 34°38' E 135°15'3 5.3
2018-Feb-17 13:01N 34°37' E 135°12'612.6
2018-Feb-17 12:30N 34°35' E 135°05'510.0
2018-Feb-17 12:00N 34°37' E 134°59'510.4
2018-Feb-17 11:31N 34°35' E 134°54'611.2
2018-Feb-17 11:00N 34°33' E 134°47'611.9
2018-Feb-17 10:31N 34°31' E 134°41'612.0
2018-Feb-17 10:00N 34°28' E 134°34'612.2
2018-Feb-17 09:28N 34°26' E 134°27'1212.3
2018-Feb-17 08:31N 34°24' E 134°12'113.2
2018-Feb-17 08:26N 34°25' E 134°11'7512.1
2018-Feb-17 02:12N 33°60' E 132°45'314.1
2018-Feb-17 02:00N 33°57' E 132°44'7 2.5
2018-Feb-16 23:16N 33°51' E 132°42'1 3.5
2018-Feb-16 22:53N 33°51' E 132°41'0 0.0
2018-Feb-16 22:27N 33°51' E 132°41'0 0.0
2018-Feb-16 21:59N 33°51' E 132°41'0 0.0
2018-Feb-16 21:30N 33°51' E 132°41'0 0.0
2018-Feb-16 21:00N 33°51' E 132°41'0 0.0
2018-Feb-16 20:13N 33°51' E 132°41'0 0.0
2018-Feb-16 19:58N 33°51' E 132°41'0 0.1
2018-Feb-16 19:28N 33°51' E 132°40'0 0.0
2018-Feb-16 18:57N 33°51' E 132°40'0 0.0
2018-Feb-16 18:29N 33°51' E 132°40'0 0.1
2018-Feb-16 17:58N 33°51' E 132°41'0 0.0
2018-Feb-16 17:26N 33°51' E 132°41'0 1.1
2018-Feb-16 17:01N 33°52' E 132°41'713.6
2018-Feb-16 16:30N 33°58' E 132°44'7211.3
2018-Feb-16 10:11N 34°27' E 134°03'514.0
2018-Feb-16 09:49N 34°26' E 134°09'413.7
2018-Feb-16 09:30N 34°24' E 134°14'713.0
2018-Feb-16 09:00N 34°26' E 134°22'612.7
2018-Feb-16 08:30N 34°28' E 134°29'612.7
2018-Feb-16 08:00N 34°30' E 134°36'612.3
2018-Feb-16 07:30N 34°33' E 134°43'612.1
2018-Feb-16 07:00N 34°35' E 134°50'510.9
2018-Feb-16 06:30N 34°37' E 134°56'5 9.6
2018-Feb-16 06:00N 34°37' E 135°02'510.7
2018-Feb-16 05:30N 34°37' E 135°09'612.0
2018-Feb-16 05:00N 34°39' E 135°15'2 4.7
2018-Feb-16 04:30N 34°41' E 135°17'0 0.0
2018-Feb-16 04:01N 34°41' E 135°17'0 0.0
2018-Feb-16 03:30N 34°41' E 135°17'0 0.0
2018-Feb-16 03:01N 34°41' E 135°17'0 0.4
2018-Feb-16 02:31N 34°41' E 135°16'0 0.5
2018-Feb-16 02:00N 34°41' E 135°16'0 0.0
2018-Feb-16 01:30N 34°41' E 135°16'0 0.6
2018-Feb-16 01:00N 34°41' E 135°16'1 1.6
2018-Feb-16 00:30N 34°40' E 135°15'1 2.1
2018-Feb-16 00:01N 34°39' E 135°15'0 0.1
2018-Feb-15 23:30N 34°39' E 135°15'0 0.9
2018-Feb-15 23:00N 34°39' E 135°15'0 0.8
2018-Feb-15 22:30N 34°39' E 135°15'0 0.0
2018-Feb-15 22:00N 34°39' E 135°15'0 0.0
2018-Feb-15 21:30N 34°39' E 135°15'0 0.0
2018-Feb-15 21:00N 34°39' E 135°15'0 0.0
2018-Feb-15 20:31N 34°39' E 135°15'0 0.0
2018-Feb-15 20:00N 34°39' E 135°15'0 0.0
2018-Feb-15 19:30N 34°39' E 135°15'0 0.0
2018-Feb-15 19:00N 34°39' E 135°15'0 0.0
2018-Feb-15 18:30N 34°39' E 135°15'0 0.0
2018-Feb-15 18:00N 34°39' E 135°15'0 0.0
2018-Feb-15 17:30N 34°39' E 135°15'0 0.0
2018-Feb-15 17:00N 34°39' E 135°15'0 0.0
2018-Feb-15 16:30N 34°39' E 135°15'0 0.0
2018-Feb-15 16:00N 34°39' E 135°15'0 0.0
2018-Feb-15 15:30N 34°39' E 135°15'0 0.0
2018-Feb-15 15:00N 34°39' E 135°15'0 0.0
2018-Feb-15 14:30N 34°39' E 135°15'0 0.0
2018-Feb-15 14:00N 34°39' E 135°15'0 0.0
2018-Feb-15 13:30N 34°39' E 135°15'0 0.0
2018-Feb-15 13:00N 34°39' E 135°15'0 0.0
2018-Feb-15 12:31N 34°39' E 135°15'0 0.0
2018-Feb-15 12:00N 34°39' E 135°15'0 0.0
2018-Feb-15 11:30N 34°39' E 135°15'0 0.0
2018-Feb-15 11:00N 34°39' E 135°15'0 0.0
2018-Feb-15 10:30N 34°39' E 135°15'0 0.0
2018-Feb-15 10:00N 34°39' E 135°15'0 0.0
2018-Feb-15 09:31N 34°39' E 135°15'0 0.0
2018-Feb-15 09:00N 34°39' E 135°15'0 0.1
2018-Feb-15 08:30N 34°39' E 135°15'0 0.0
2018-Feb-15 08:00N 34°39' E 135°15'0 0.1
2018-Feb-15 07:31N 34°39' E 135°15'3 6.2
2018-Feb-15 07:00N 34°37' E 135°12'612.3
2018-Feb-15 06:30N 34°35' E 135°05'713.9
2018-Feb-15 06:00N 34°36' E 134°57'714.3
2018-Feb-15 05:31N 34°33' E 134°49'712.9
2018-Feb-15 05:00N 34°31' E 134°41'613.0
2018-Feb-15 04:30N 34°28' E 134°34'612.6
2018-Feb-15 04:00N 34°26' E 134°27'712.5
2018-Feb-15 03:27N 34°24' E 134°19'10 0.5
2018-Feb-14 06:37N 34°26' E 134°07'512.0
2018-Feb-14 06:13N 34°25' E 134°13'211.4
2018-Feb-14 06:00N 34°25' E 134°15'611.9
2018-Feb-14 05:30N 34°26' E 134°22'612.2
2018-Feb-14 05:01N 34°28' E 134°29'612.0
2018-Feb-14 04:30N 34°30' E 134°36'611.7
2018-Feb-14 04:00N 34°32' E 134°43'611.9
2018-Feb-14 03:30N 34°34' E 134°50'611.6
2018-Feb-14 03:00N 34°36' E 134°56'510.3
2018-Feb-14 02:30N 34°37' E 135°02'612.1
2018-Feb-14 02:00N 34°37' E 135°10'5 9.8
2018-Feb-14 01:30N 34°40' E 135°15'0 0.8
2018-Feb-14 01:00N 34°40' E 135°14'0 0.0
2018-Feb-14 00:30N 34°40' E 135°14'2 4.5
2018-Feb-14 00:01N 34°41' E 135°17'0 0.0
2018-Feb-13 23:30N 34°41' E 135°17'3 5.5
2018-Feb-13 23:00N 34°41' E 135°13'0 0.5
2018-Feb-13 22:30N 34°40' E 135°13'0 0.0
2018-Feb-13 22:00N 34°40' E 135°13'0 0.0
2018-Feb-13 21:30N 34°40' E 135°13'0 0.0
2018-Feb-13 21:00N 34°40' E 135°13'0 0.0
2018-Feb-13 20:30N 34°40' E 135°13'0 0.0
2018-Feb-13 20:00N 34°40' E 135°13'0 0.0
2018-Feb-13 19:30N 34°40' E 135°13'0 0.0
2018-Feb-13 19:00N 34°40' E 135°13'0 0.0
2018-Feb-13 18:30N 34°40' E 135°13'0 0.0
2018-Feb-13 18:00N 34°40' E 135°13'0 0.0
2018-Feb-13 17:30N 34°40' E 135°13'0 0.0
2018-Feb-13 17:00N 34°40' E 135°13'0 0.0
2018-Feb-13 16:30N 34°40' E 135°13'0 0.0
2018-Feb-13 16:00N 34°40' E 135°13'0 0.0
2018-Feb-13 15:30N 34°40' E 135°13'0 0.0
2018-Feb-13 15:00N 34°40' E 135°13'0 0.0
2018-Feb-13 14:30N 34°40' E 135°13'0 0.0
2018-Feb-13 14:00N 34°40' E 135°13'0 0.0
2018-Feb-13 13:30N 34°40' E 135°13'0 0.0
2018-Feb-13 13:00N 34°40' E 135°13'0 0.0
2018-Feb-13 12:30N 34°40' E 135°13'0 0.0
2018-Feb-13 12:01N 34°40' E 135°13'0 0.0
2018-Feb-13 11:30N 34°40' E 135°13'0 0.0
2018-Feb-13 11:00N 34°40' E 135°13'0 0.0
2018-Feb-13 10:30N 34°40' E 135°13'0 0.0
2018-Feb-13 10:00N 34°40' E 135°13'0 0.0
2018-Feb-13 09:30N 34°40' E 135°13'0 0.0
2018-Feb-13 09:00N 34°40' E 135°13'0 0.0
2018-Feb-13 08:30N 34°40' E 135°13'0 0.0
2018-Feb-13 08:00N 34°40' E 135°13'2 3.4
2018-Feb-13 07:31N 34°40' E 135°15'5 9.7
2018-Feb-13 07:00N 34°37' E 135°11'612.4
2018-Feb-13 06:30N 34°36' E 135°03'713.4
2018-Feb-13 06:00N 34°35' E 134°55'713.8
2018-Feb-13 05:30N 34°33' E 134°47'613.1
2018-Feb-13 05:00N 34°30' E 134°40'612.8
2018-Feb-13 04:30N 34°28' E 134°33'812.9
2018-Feb-13 03:54N 34°25' E 134°24'612.9
2018-Feb-13 03:26N 34°24' E 134°17'7 0.4
2018-Feb-12 09:19N 34°26' E 134°09'412.7
2018-Feb-12 08:59N 34°24' E 134°14'612.8
2018-Feb-12 08:30N 34°25' E 134°21'612.5
2018-Feb-12 08:00N 34°28' E 134°28'612.3
2018-Feb-12 07:30N 34°30' E 134°35'612.3
2018-Feb-12 07:01N 34°32' E 134°42'612.1
2018-Feb-12 06:30N 34°34' E 134°49'611.2
2018-Feb-12 06:00N 34°36' E 134°55'510.1
2018-Feb-12 05:30N 34°37' E 135°01'5 9.6
2018-Feb-12 05:00N 34°36' E 135°07'511.1
2018-Feb-12 04:30N 34°37' E 135°14'4 8.3
2018-Feb-12 04:00N 34°41' E 135°17'0 0.2
2018-Feb-12 03:30N 34°41' E 135°17'1 1.2
2018-Feb-12 03:00N 34°41' E 135°17'1 2.8
2018-Feb-12 02:30N 34°41' E 135°16'2 3.1
2018-Feb-12 02:00N 34°39' E 135°15'0 0.0
2018-Feb-12 01:30N 34°39' E 135°15'1 2.2
2018-Feb-12 01:00N 34°40' E 135°15'1 2.9
2018-Feb-12 00:30N 34°41' E 135°17'0 0.1
2018-Feb-12 00:00N 34°41' E 135°17'3 5.9
2018-Feb-11 23:30N 34°40' E 135°13'0 0.1
2018-Feb-11 23:00N 34°40' E 135°13'0 0.1
2018-Feb-11 22:30N 34°40' E 135°13'0 0.1
2018-Feb-11 22:01N 34°40' E 135°13'0 0.1
2018-Feb-11 21:30N 34°40' E 135°13'0 0.1
2018-Feb-11 21:01N 34°40' E 135°13'0 0.0
2018-Feb-11 20:30N 34°40' E 135°13'0 0.0
2018-Feb-11 20:01N 34°40' E 135°13'0 0.1
2018-Feb-11 19:30N 34°40' E 135°13'0 0.1
2018-Feb-11 19:00N 34°40' E 135°13'0 0.1
2018-Feb-11 18:31N 34°40' E 135°13'0 0.1
2018-Feb-11 18:00N 34°40' E 135°13'0 0.0
2018-Feb-11 17:30N 34°40' E 135°13'0 0.0
2018-Feb-11 17:00N 34°40' E 135°13'0 0.0
2018-Feb-11 16:31N 34°40' E 135°13'0 0.0
2018-Feb-11 16:01N 34°40' E 135°13'0 0.0
2018-Feb-11 15:31N 34°40' E 135°13'0 0.0
2018-Feb-11 15:00N 34°40' E 135°13'0 0.0
2018-Feb-11 14:30N 34°40' E 135°13'0 0.1
2018-Feb-11 14:00N 34°40' E 135°13'0 0.0
2018-Feb-11 13:30N 34°40' E 135°13'0 0.1
2018-Feb-11 13:00N 34°40' E 135°13'0 0.0
2018-Feb-11 12:31N 34°40' E 135°13'0 0.0
2018-Feb-11 12:00N 34°40' E 135°13'0 0.0
2018-Feb-11 11:31N 34°40' E 135°13'0 0.0
2018-Feb-11 11:00N 34°40' E 135°13'0 0.0
2018-Feb-11 10:30N 34°40' E 135°13'0 0.0
2018-Feb-11 10:00N 34°40' E 135°13'0 0.0
2018-Feb-11 09:30N 34°40' E 135°13'0 0.0
2018-Feb-11 09:00N 34°40' E 135°13'0 0.0
2018-Feb-11 08:30N 34°40' E 135°13'0 0.1
2018-Feb-11 08:00N 34°40' E 135°13'0 0.1
2018-Feb-11 07:30N 34°40' E 135°13'0 0.1
2018-Feb-11 07:00N 34°40' E 135°13'0 0.1
2018-Feb-11 06:31N 34°40' E 135°13'0 0.1
2018-Feb-11 06:00N 34°40' E 135°13'0 0.1
2018-Feb-11 05:31N 34°40' E 135°13'0 0.0
2018-Feb-11 05:00N 34°40' E 135°13'0 0.0
2018-Feb-11 04:31N 34°40' E 135°13'0 0.0
2018-Feb-11 04:01N 34°40' E 135°13'0 0.0
2018-Feb-11 03:31N 34°40' E 135°13'0 0.1
2018-Feb-11 03:00N 34°40' E 135°13'0 0.1
2018-Feb-11 02:30N 34°40' E 135°13'0 0.1
2018-Feb-11 02:00N 34°40' E 135°13'0 0.1
2018-Feb-11 01:30N 34°40' E 135°13'0 0.0
2018-Feb-11 01:00N 34°40' E 135°13'0 0.0
2018-Feb-11 00:30N 34°40' E 135°13'0 0.1
2018-Feb-11 00:00N 34°40' E 135°13'0 0.0
2018-Feb-10 23:30N 34°40' E 135°13'0 0.0
2018-Feb-10 23:01N 34°40' E 135°13'2 4.6
2018-Feb-10 22:31N 34°39' E 135°15'1 1.1
2018-Feb-10 22:00N 34°39' E 135°15'0 0.1
2018-Feb-10 21:31N 34°39' E 135°15'0 0.0
2018-Feb-10 21:01N 34°39' E 135°15'0 0.1
2018-Feb-10 20:30N 34°39' E 135°15'0 0.1
2018-Feb-10 20:00N 34°39' E 135°15'0 0.1
2018-Feb-10 19:30N 34°39' E 135°15'0 0.1
2018-Feb-10 19:00N 34°39' E 135°15'0 0.0
2018-Feb-10 18:30N 34°39' E 135°15'0 0.1
2018-Feb-10 18:00N 34°39' E 135°15'0 0.1
2018-Feb-10 17:30N 34°39' E 135°15'0 0.1
2018-Feb-10 17:00N 34°39' E 135°15'0 0.1
2018-Feb-10 16:30N 34°39' E 135°15'0 0.1
2018-Feb-10 16:00N 34°39' E 135°15'0 0.1
2018-Feb-10 15:30N 34°39' E 135°15'3 5.7
2018-Feb-10 15:01N 34°37' E 135°12'612.6
2018-Feb-10 14:31N 34°35' E 135°05'713.5
2018-Feb-10 14:00N 34°36' E 134°57'714.6
2018-Feb-10 13:31N 34°33' E 134°49'713.4
2018-Feb-10 13:01N 34°30' E 134°41'713.1
2018-Feb-10 12:31N 34°28' E 134°34'612.7
2018-Feb-10 12:00N 34°26' E 134°27'1212.8
2018-Feb-10 11:05N 34°24' E 134°12'6411.7
2018-Feb-10 05:39N 34°09' E 132°58'1411.5
2018-Feb-10 04:26N 34°06' E 132°42'511.9
2018-Feb-10 04:00N 34°04' E 132°36'811.0
2018-Feb-10 03:17N 34°05' E 132°26'412.3
2018-Feb-10 03:00N 34°07' E 132°23'612.4
2018-Feb-10 02:30N 34°11' E 132°17'3 5.9
2018-Feb-10 02:00N 34°13' E 132°15'0 0.0
2018-Feb-10 01:30N 34°13' E 132°15'0 0.0
2018-Feb-10 01:00N 34°13' E 132°15'0 0.0
2018-Feb-10 00:30N 34°13' E 132°15'0 0.0
2018-Feb-10 00:00N 34°13' E 132°15'0 0.0
2018-Feb-09 23:30N 34°13' E 132°15'0 0.0
2018-Feb-09 23:00N 34°13' E 132°15'0 0.0
2018-Feb-09 22:46N 34°13' E 132°15'  
Track history (hours):
 
Tides and Currents Weather Stations Pressure Air Temp Water Temp Dewpoint Dewpoint Depression Visibility Wind Speed Wind Dir Waves Ship Positions

Tamon

Last reported at 2018-Feb-19 05:55 UTC. Time now 2018-Feb-19 06:01 UTC.
Position N 34°46' E 134°36'.

Length 77 m; draft 4.5 m.

Type: Cargo ship. MMSI: 431000898.

Date/timePositionNaut miles runAvg speedWind from/ knotsBaromVisibWave heightAir tempDewpointWater temp
2018-Feb-19 05:55N 34°46' E 134°36'0 0.0
2018-Feb-19 05:26N 34°46' E 134°36'1 1.2
2018-Feb-19 05:00N 34°46' E 134°37'611.8
2018-Feb-19 04:29N 34°43' E 134°43'612.2
2018-Feb-19 04:00N 34°40' E 134°49'612.3
2018-Feb-19 03:30N 34°37' E 134°56'613.0
2018-Feb-19 03:00N 34°36' E 135°03'612.5
2018-Feb-19 02:31N 34°37' E 135°11'4 7.3
2018-Feb-19 02:00N 34°39' E 135°15'0 0.4
2018-Feb-19 01:30N 34°39' E 135°15'0 0.1
2018-Feb-19 01:00N 34°39' E 135°15'0 0.0
2018-Feb-19 00:31N 34°39' E 135°15'2 4.6
2018-Feb-19 00:00N 34°41' E 135°17'0 0.0
2018-Feb-18 23:31N 34°41' E 135°17'2 3.6
2018-Feb-18 22:59N 34°41' E 135°14'1 2.3
2018-Feb-18 22:30N 34°40' E 135°13'0 0.0
2018-Feb-18 22:00N 34°40' E 135°13'0 0.0
2018-Feb-18 21:30N 34°40' E 135°13'0 0.0
2018-Feb-18 21:00N 34°40' E 135°13'0 0.0
2018-Feb-18 20:30N 34°40' E 135°13'0 0.0
2018-Feb-18 20:00N 34°40' E 135°13'0 0.0
2018-Feb-18 19:30N 34°40' E 135°13'0 0.0
2018-Feb-18 19:00N 34°40' E 135°13'0 0.0
2018-Feb-18 18:30N 34°40' E 135°13'0 0.0
2018-Feb-18 18:00N 34°40' E 135°13'0 0.0
2018-Feb-18 17:30N 34°40' E 135°13'0 0.0
2018-Feb-18 17:00N 34°40' E 135°13'0 0.0
2018-Feb-18 16:31N 34°40' E 135°13'0 0.0
2018-Feb-18 16:00N 34°40' E 135°13'0 0.0
2018-Feb-18 15:30N 34°40' E 135°13'0 0.0
2018-Feb-18 15:01N 34°40' E 135°13'0 0.0
2018-Feb-18 14:30N 34°40' E 135°13'0 0.0
2018-Feb-18 14:01N 34°40' E 135°13'0 0.0
2018-Feb-18 13:30N 34°40' E 135°13'0 0.0
2018-Feb-18 13:00N 34°40' E 135°13'0 0.0
2018-Feb-18 12:30N 34°40' E 135°13'0 0.0
2018-Feb-18 12:00N 34°40' E 135°13'0 0.0
2018-Feb-18 11:30N 34°40' E 135°13'0 0.0
2018-Feb-18 11:01N 34°40' E 135°13'0 0.0
2018-Feb-18 10:31N 34°40' E 135°13'0 0.0
2018-Feb-18 10:00N 34°40' E 135°13'0 0.0
2018-Feb-18 09:30N 34°40' E 135°13'0 0.0
2018-Feb-18 09:01N 34°40' E 135°13'0 0.0
2018-Feb-18 08:30N 34°40' E 135°13'0 0.0
2018-Feb-18 08:00N 34°40' E 135°13'0 0.0
2018-Feb-18 07:31N 34°40' E 135°13'0 0.0
2018-Feb-18 07:00N 34°40' E 135°13'0 0.0
2018-Feb-18 06:30N 34°40' E 135°13'0 0.0
2018-Feb-18 06:01N 34°40' E 135°13'0 0.0
2018-Feb-18 05:30N 34°40' E 135°13'0 0.0
2018-Feb-18 05:00N 34°40' E 135°13'0 0.0
2018-Feb-18 04:31N 34°40' E 135°13'0 0.0
2018-Feb-18 04:00N 34°40' E 135°13'0 0.0
2018-Feb-18 03:30N 34°40' E 135°13'0 0.0
2018-Feb-18 03:00N 34°40' E 135°13'0 0.0
2018-Feb-18 02:29N 34°40' E 135°13'0 0.0
2018-Feb-18 02:00N 34°40' E 135°13'0 0.0
2018-Feb-18 01:31N 34°40' E 135°13'0 0.0
2018-Feb-18 01:00N 34°40' E 135°13'0 0.0
2018-Feb-18 00:30N 34°40' E 135°13'0 0.0
2018-Feb-18 00:01N 34°40' E 135°13'0 0.0
2018-Feb-17 23:30N 34°40' E 135°13'0 0.0
2018-Feb-17 23:01N 34°40' E 135°13'2 4.5
2018-Feb-17 22:31N 34°39' E 135°15'1 1.8
2018-Feb-17 22:01N 34°39' E 135°15'0 0.1
2018-Feb-17 21:30N 34°39' E 135°15'0 0.1
2018-Feb-17 21:00N 34°39' E 135°15'0 0.1
2018-Feb-17 20:30N 34°39' E 135°15'0 0.0
2018-Feb-17 20:00N 34°39' E 135°15'0 0.0
2018-Feb-17 19:31N 34°39' E 135°15'0 0.1
2018-Feb-17 19:00N 34°38' E 135°15'0 0.1
2018-Feb-17 18:30N 34°38' E 135°15'0 0.1
2018-Feb-17 18:00N 34°38' E 135°15'0 0.0
2018-Feb-17 17:30N 34°38' E 135°15'0 0.0
2018-Feb-17 17:00N 34°38' E 135°15'0 0.0
2018-Feb-17 16:31N 34°38' E 135°15'0 0.1
2018-Feb-17 16:00N 34°38' E 135°15'0 0.1
2018-Feb-17 15:31N 34°38' E 135°15'0 0.0
2018-Feb-17 15:00N 34°38' E 135°15'0 0.0
2018-Feb-17 14:30N 34°38' E 135°15'0 0.0
2018-Feb-17 14:01N 34°38' E 135°15'0 0.0
2018-Feb-17 13:30N 34°38' E 135°15'3 5.3
2018-Feb-17 13:01N 34°37' E 135°12'612.6
2018-Feb-17 12:30N 34°35' E 135°05'510.0
2018-Feb-17 12:00N 34°37' E 134°59'510.4
2018-Feb-17 11:31N 34°35' E 134°54'611.2
2018-Feb-17 11:00N 34°33' E 134°47'611.9
2018-Feb-17 10:31N 34°31' E 134°41'612.0
2018-Feb-17 10:00N 34°28' E 134°34'612.2
2018-Feb-17 09:28N 34°26' E 134°27'1212.3
2018-Feb-17 08:31N 34°24' E 134°12'113.2
2018-Feb-17 08:26N 34°25' E 134°11'7512.1
2018-Feb-17 02:12N 33°60' E 132°45'314.1
2018-Feb-17 02:00N 33°57' E 132°44'7 2.5
2018-Feb-16 23:16N 33°51' E 132°42'1 3.5
2018-Feb-16 22:53N 33°51' E 132°41'0 0.0
2018-Feb-16 22:27N 33°51' E 132°41'0 0.0
2018-Feb-16 21:59N 33°51' E 132°41'0 0.0
2018-Feb-16 21:30N 33°51' E 132°41'0 0.0
2018-Feb-16 21:00N 33°51' E 132°41'0 0.0
2018-Feb-16 20:13N 33°51' E 132°41'0 0.0
2018-Feb-16 19:58N 33°51' E 132°41'0 0.1
2018-Feb-16 19:28N 33°51' E 132°40'0 0.0
2018-Feb-16 18:57N 33°51' E 132°40'0 0.0
2018-Feb-16 18:29N 33°51' E 132°40'0 0.1
2018-Feb-16 17:58N 33°51' E 132°41'0 0.0
2018-Feb-16 17:26N 33°51' E 132°41'0 1.1
2018-Feb-16 17:01N 33°52' E 132°41'713.6
2018-Feb-16 16:30N 33°58' E 132°44'7211.3
2018-Feb-16 10:11N 34°27' E 134°03'514.0
2018-Feb-16 09:49N 34°26' E 134°09'413.7
2018-Feb-16 09:30N 34°24' E 134°14'713.0
2018-Feb-16 09:00N 34°26' E 134°22'612.7
2018-Feb-16 08:30N 34°28' E 134°29'612.7
2018-Feb-16 08:00N 34°30' E 134°36'612.3
2018-Feb-16 07:30N 34°33' E 134°43'612.1
2018-Feb-16 07:00N 34°35' E 134°50'510.9
2018-Feb-16 06:30N 34°37' E 134°56'5 9.6
2018-Feb-16 06:00N 34°37' E 135°02'510.7
2018-Feb-16 05:30N 34°37' E 135°09'612.0
2018-Feb-16 05:00N 34°39' E 135°15'2 4.7
2018-Feb-16 04:30N 34°41' E 135°17'0 0.0
2018-Feb-16 04:01N 34°41' E 135°17'0 0.0
2018-Feb-16 03:30N 34°41' E 135°17'0 0.0
2018-Feb-16 03:01N 34°41' E 135°17'0 0.4
2018-Feb-16 02:31N 34°41' E 135°16'0 0.5
2018-Feb-16 02:00N 34°41' E 135°16'0 0.0
2018-Feb-16 01:30N 34°41' E 135°16'0 0.6
2018-Feb-16 01:00N 34°41' E 135°16'1 1.6
2018-Feb-16 00:30N 34°40' E 135°15'1 2.1
2018-Feb-16 00:01N 34°39' E 135°15'0 0.1
2018-Feb-15 23:30N 34°39' E 135°15'0 0.9
2018-Feb-15 23:00N 34°39' E 135°15'0 0.8
2018-Feb-15 22:30N 34°39' E 135°15'0 0.0
2018-Feb-15 22:00N 34°39' E 135°15'0 0.0
2018-Feb-15 21:30N 34°39' E 135°15'0 0.0
2018-Feb-15 21:00N 34°39' E 135°15'0 0.0
2018-Feb-15 20:31N 34°39' E 135°15'0 0.0
2018-Feb-15 20:00N 34°39' E 135°15'0 0.0
2018-Feb-15 19:30N 34°39' E 135°15'0 0.0
2018-Feb-15 19:00N 34°39' E 135°15'0 0.0
2018-Feb-15 18:30N 34°39' E 135°15'0 0.0
2018-Feb-15 18:00N 34°39' E 135°15'0 0.0
2018-Feb-15 17:30N 34°39' E 135°15'0 0.0
2018-Feb-15 17:00N 34°39' E 135°15'0 0.0
2018-Feb-15 16:30N 34°39' E 135°15'0 0.0
2018-Feb-15 16:00N 34°39' E 135°15'0 0.0
2018-Feb-15 15:30N 34°39' E 135°15'0 0.0
2018-Feb-15 15:00N 34°39' E 135°15'0 0.0
2018-Feb-15 14:30N 34°39' E 135°15'0 0.0
2018-Feb-15 14:00N 34°39' E 135°15'0 0.0
2018-Feb-15 13:30N 34°39' E 135°15'0 0.0
2018-Feb-15 13:00N 34°39' E 135°15'0 0.0
2018-Feb-15 12:31N 34°39' E 135°15'0 0.0
2018-Feb-15 12:00N 34°39' E 135°15'0 0.0
2018-Feb-15 11:30N 34°39' E 135°15'0 0.0
2018-Feb-15 11:00N 34°39' E 135°15'0 0.0
2018-Feb-15 10:30N 34°39' E 135°15'0 0.0
2018-Feb-15 10:00N 34°39' E 135°15'0 0.0
2018-Feb-15 09:31N 34°39' E 135°15'0 0.0
2018-Feb-15 09:00N 34°39' E 135°15'0 0.1
2018-Feb-15 08:30N 34°39' E 135°15'0 0.0
2018-Feb-15 08:00N 34°39' E 135°15'0 0.1
2018-Feb-15 07:31N 34°39' E 135°15'3 6.2
2018-Feb-15 07:00N 34°37' E 135°12'612.3
2018-Feb-15 06:30N 34°35' E 135°05'713.9
2018-Feb-15 06:00N 34°36' E 134°57'714.3
2018-Feb-15 05:31N 34°33' E 134°49'712.9
2018-Feb-15 05:00N 34°31' E 134°41'613.0
2018-Feb-15 04:30N 34°28' E 134°34'612.6
2018-Feb-15 04:00N 34°26' E 134°27'712.5
2018-Feb-15 03:27N 34°24' E 134°19'10 0.5
2018-Feb-14 06:37N 34°26' E 134°07'512.0
2018-Feb-14 06:13N 34°25' E 134°13'211.4
2018-Feb-14 06:00N 34°25' E 134°15'611.9
2018-Feb-14 05:30N 34°26' E 134°22'612.2
2018-Feb-14 05:01N 34°28' E 134°29'612.0
2018-Feb-14 04:30N 34°30' E 134°36'611.7
2018-Feb-14 04:00N 34°32' E 134°43'611.9
2018-Feb-14 03:30N 34°34' E 134°50'611.6
2018-Feb-14 03:00N 34°36' E 134°56'510.3
2018-Feb-14 02:30N 34°37' E 135°02'612.1
2018-Feb-14 02:00N 34°37' E 135°10'5 9.8
2018-Feb-14 01:30N 34°40' E 135°15'0 0.8
2018-Feb-14 01:00N 34°40' E 135°14'0 0.0
2018-Feb-14 00:30N 34°40' E 135°14'2 4.5
2018-Feb-14 00:01N 34°41' E 135°17'0 0.0
2018-Feb-13 23:30N 34°41' E 135°17'3 5.5
2018-Feb-13 23:00N 34°41' E 135°13'0 0.5
2018-Feb-13 22:30N 34°40' E 135°13'0 0.0
2018-Feb-13 22:00N 34°40' E 135°13'0 0.0
2018-Feb-13 21:30N 34°40' E 135°13'0 0.0
2018-Feb-13 21:00N 34°40' E 135°13'0 0.0
2018-Feb-13 20:30N 34°40' E 135°13'0 0.0
2018-Feb-13 20:00N 34°40' E 135°13'0 0.0
2018-Feb-13 19:30N 34°40' E 135°13'0 0.0
2018-Feb-13 19:00N 34°40' E 135°13'0 0.0
2018-Feb-13 18:30N 34°40' E 135°13'0 0.0
2018-Feb-13 18:00N 34°40' E 135°13'0 0.0
2018-Feb-13 17:30N 34°40' E 135°13'0 0.0
2018-Feb-13 17:00N 34°40' E 135°13'0 0.0
2018-Feb-13 16:30N 34°40' E 135°13'0 0.0
2018-Feb-13 16:00N 34°40' E 135°13'0 0.0
2018-Feb-13 15:30N 34°40' E 135°13'0 0.0
2018-Feb-13 15:00N 34°40' E 135°13'0 0.0
2018-Feb-13 14:30N 34°40' E 135°13'0 0.0
2018-Feb-13 14:00N 34°40' E 135°13'0 0.0
2018-Feb-13 13:30N 34°40' E 135°13'0 0.0
2018-Feb-13 13:00N 34°40' E 135°13'0 0.0
2018-Feb-13 12:30N 34°40' E 135°13'0 0.0
2018-Feb-13 12:01N 34°40' E 135°13'0 0.0
2018-Feb-13 11:30N 34°40' E 135°13'0 0.0
2018-Feb-13 11:00N 34°40' E 135°13'0 0.0
2018-Feb-13 10:30N 34°40' E 135°13'0 0.0
2018-Feb-13 10:00N 34°40' E 135°13'0 0.0
2018-Feb-13 09:30N 34°40' E 135°13'0 0.0
2018-Feb-13 09:00N 34°40' E 135°13'0 0.0
2018-Feb-13 08:30N 34°40' E 135°13'0 0.0
2018-Feb-13 08:00N 34°40' E 135°13'2 3.4
2018-Feb-13 07:31N 34°40' E 135°15'5 9.7
2018-Feb-13 07:00N 34°37' E 135°11'612.4
2018-Feb-13 06:30N 34°36' E 135°03'713.4
2018-Feb-13 06:00N 34°35' E 134°55'713.8
2018-Feb-13 05:30N 34°33' E 134°47'613.1
2018-Feb-13 05:00N 34°30' E 134°40'612.8
2018-Feb-13 04:30N 34°28' E 134°33'812.9
2018-Feb-13 03:54N 34°25' E 134°24'612.9
2018-Feb-13 03:26N 34°24' E 134°17'7 0.4
2018-Feb-12 09:19N 34°26' E 134°09'412.7
2018-Feb-12 08:59N 34°24' E 134°14'612.8
2018-Feb-12 08:30N 34°25' E 134°21'612.5
2018-Feb-12 08:00N 34°28' E 134°28'612.3
2018-Feb-12 07:30N 34°30' E 134°35'612.3
2018-Feb-12 07:01N 34°32' E 134°42'612.1
2018-Feb-12 06:30N 34°34' E 134°49'611.2
2018-Feb-12 06:00N 34°36' E 134°55'510.1
2018-Feb-12 05:30N 34°37' E 135°01'5 9.6
2018-Feb-12 05:00N 34°36' E 135°07'511.1
2018-Feb-12 04:30N 34°37' E 135°14'4 8.3
2018-Feb-12 04:00N 34°41' E 135°17'0 0.2
2018-Feb-12 03:30N 34°41' E 135°17'1 1.2
2018-Feb-12 03:00N 34°41' E 135°17'1 2.8
2018-Feb-12 02:30N 34°41' E 135°16'2 3.1
2018-Feb-12 02:00N 34°39' E 135°15'0 0.0
2018-Feb-12 01:30N 34°39' E 135°15'1 2.2
2018-Feb-12 01:00N 34°40' E 135°15'1 2.9
2018-Feb-12 00:30N 34°41' E 135°17'0 0.1
2018-Feb-12 00:00N 34°41' E 135°17'3 5.9
2018-Feb-11 23:30N 34°40' E 135°13'0 0.1
2018-Feb-11 23:00N 34°40' E 135°13'0 0.1
2018-Feb-11 22:30N 34°40' E 135°13'0 0.1
2018-Feb-11 22:01N 34°40' E 135°13'0 0.1
2018-Feb-11 21:30N 34°40' E 135°13'0 0.1
2018-Feb-11 21:01N 34°40' E 135°13'0 0.0
2018-Feb-11 20:30N 34°40' E 135°13'0 0.0
2018-Feb-11 20:01N 34°40' E 135°13'0 0.1
2018-Feb-11 19:30N 34°40' E 135°13'0 0.1
2018-Feb-11 19:00N 34°40' E 135°13'0 0.1
2018-Feb-11 18:31N 34°40' E 135°13'0 0.1
2018-Feb-11 18:00N 34°40' E 135°13'0 0.0
2018-Feb-11 17:30N 34°40' E 135°13'0 0.0
2018-Feb-11 17:00N 34°40' E 135°13'0 0.0
2018-Feb-11 16:31N 34°40' E 135°13'0 0.0
2018-Feb-11 16:01N 34°40' E 135°13'0 0.0
2018-Feb-11 15:31N 34°40' E 135°13'0 0.0
2018-Feb-11 15:00N 34°40' E 135°13'0 0.0
2018-Feb-11 14:30N 34°40' E 135°13'0 0.1
2018-Feb-11 14:00N 34°40' E 135°13'0 0.0
2018-Feb-11 13:30N 34°40' E 135°13'0 0.1
2018-Feb-11 13:00N 34°40' E 135°13'0 0.0
2018-Feb-11 12:31N 34°40' E 135°13'0 0.0
2018-Feb-11 12:00N 34°40' E 135°13'0 0.0
2018-Feb-11 11:31N 34°40' E 135°13'0 0.0
2018-Feb-11 11:00N 34°40' E 135°13'0 0.0
2018-Feb-11 10:30N 34°40' E 135°13'0 0.0
2018-Feb-11 10:00N 34°40' E 135°13'0 0.0
2018-Feb-11 09:30N 34°40' E 135°13'0 0.0
2018-Feb-11 09:00N 34°40' E 135°13'0 0.0
2018-Feb-11 08:30N 34°40' E 135°13'0 0.1
2018-Feb-11 08:00N 34°40' E 135°13'0 0.1
2018-Feb-11 07:30N 34°40' E 135°13'0 0.1
2018-Feb-11 07:00N 34°40' E 135°13'0 0.1
2018-Feb-11 06:31N 34°40' E 135°13'0 0.1
2018-Feb-11 06:00N 34°40' E 135°13'0 0.1
2018-Feb-11 05:31N 34°40' E 135°13'0 0.0
2018-Feb-11 05:00N 34°40' E 135°13'0 0.0
2018-Feb-11 04:31N 34°40' E 135°13'0 0.0
2018-Feb-11 04:01N 34°40' E 135°13'0 0.0
2018-Feb-11 03:31N 34°40' E 135°13'0 0.1
2018-Feb-11 03:00N 34°40' E 135°13'0 0.1
2018-Feb-11 02:30N 34°40' E 135°13'0 0.1
2018-Feb-11 02:00N 34°40' E 135°13'0 0.1
2018-Feb-11 01:30N 34°40' E 135°13'0 0.0
2018-Feb-11 01:00N 34°40' E 135°13'0 0.0
2018-Feb-11 00:30N 34°40' E 135°13'0 0.1
2018-Feb-11 00:00N 34°40' E 135°13'0 0.0
2018-Feb-10 23:30N 34°40' E 135°13'0 0.0
2018-Feb-10 23:01N 34°40' E 135°13'2 4.6
2018-Feb-10 22:31N 34°39' E 135°15'1 1.1
2018-Feb-10 22:00N 34°39' E 135°15'0 0.1
2018-Feb-10 21:31N 34°39' E 135°15'0 0.0
2018-Feb-10 21:01N 34°39' E 135°15'0 0.1
2018-Feb-10 20:30N 34°39' E 135°15'0 0.1
2018-Feb-10 20:00N 34°39' E 135°15'0 0.1
2018-Feb-10 19:30N 34°39' E 135°15'0 0.1
2018-Feb-10 19:00N 34°39' E 135°15'0 0.0
2018-Feb-10 18:30N 34°39' E 135°15'0 0.1
2018-Feb-10 18:00N 34°39' E 135°15'0 0.1
2018-Feb-10 17:30N 34°39' E 135°15'0 0.1
2018-Feb-10 17:00N 34°39' E 135°15'0 0.1
2018-Feb-10 16:30N 34°39' E 135°15'0 0.1
2018-Feb-10 16:00N 34°39' E 135°15'0 0.1
2018-Feb-10 15:30N 34°39' E 135°15'3 5.7
2018-Feb-10 15:01N 34°37' E 135°12'612.6
2018-Feb-10 14:31N 34°35' E 135°05'713.5
2018-Feb-10 14:00N 34°36' E 134°57'714.6
2018-Feb-10 13:31N 34°33' E 134°49'713.4
2018-Feb-10 13:01N 34°30' E 134°41'713.1
2018-Feb-10 12:31N 34°28' E 134°34'612.7
2018-Feb-10 12:00N 34°26' E 134°27'1212.8
2018-Feb-10 11:05N 34°24' E 134°12'6411.7
2018-Feb-10 05:39N 34°09' E 132°58'1411.5
2018-Feb-10 04:26N 34°06' E 132°42'511.9
2018-Feb-10 04:00N 34°04' E 132°36'811.0
2018-Feb-10 03:17N 34°05' E 132°26'412.3
2018-Feb-10 03:00N 34°07' E 132°23'612.4
2018-Feb-10 02:30N 34°11' E 132°17'3 5.9
2018-Feb-10 02:00N 34°13' E 132°15'0 0.0
2018-Feb-10 01:30N 34°13' E 132°15'0 0.0
2018-Feb-10 01:00N 34°13' E 132°15'0 0.0
2018-Feb-10 00:30N 34°13' E 132°15'0 0.0
2018-Feb-10 00:00N 34°13' E 132°15'0 0.0
2018-Feb-09 23:30N 34°13' E 132°15'0 0.0
2018-Feb-09 23:00N 34°13' E 132°15'0 0.0
2018-Feb-09 22:46N 34°13' E 132°15'  

Dump ship's entire track history